Time,TemperatureF,DewpointF,PressureIn,WindDirection,WindDirectionDegrees,WindSpeedMPH,WindSpeedGustMPH,Humidity,HourlyPrecipIn,Conditions,Clouds,dailyrainin,SolarRadiationWatts/m^2,SoftwareType,DateUTC
2013-03-04 00:01:00,71.0,58.0,30.10,ENE,61,5.0,8.0,63,0.00,,,0.00,0.000000,,2013-03-04 10:01:00,
2013-03-04 00:11:00,71.0,58.0,30.10,ENE,61,5.0,8.0,63,0.00,,,0.00,0.000000,,2013-03-04 10:11:00,
2013-03-04 00:32:00,70.0,57.0,30.10,East,79,4.0,7.0,64,0.00,,,0.00,0.000000,,2013-03-04 10:32:00,
2013-03-04 00:42:00,70.0,57.0,30.10,East,79,4.0,7.0,64,0.00,,,0.00,0.000000,,2013-03-04 10:42:00,
2013-03-04 00:52:00,70.0,57.0,30.10,East,79,4.0,7.0,64,0.00,,,0.00,0.000000,,2013-03-04 10:52:00,
2013-03-04 01:01:00,70.0,57.0,30.10,East,79,4.0,7.0,64,0.00,,,0.00,0.000000,,2013-03-04 11:01:00,
2013-03-04 01:11:00,70.0,57.0,30.10,East,79,4.0,7.0,64,0.00,,,0.00,0.000000,,2013-03-04 11:11:00,
2013-03-04 01:32:00,69.0,58.0,30.09,ESE,112,4.0,6.0,67,0.00,,,0.00,0.000000,,2013-03-04 11:32:00,
2013-03-04 01:42:00,69.0,58.0,30.09,ESE,112,4.0,6.0,67,0.00,,,0.00,0.000000,,2013-03-04 11:42:00,
2013-03-04 01:52:00,69.0,58.0,30.09,ESE,112,4.0,6.0,67,0.00,,,0.00,0.000000,,2013-03-04 11:52:00,
2013-03-04 02:01:00,69.0,58.0,30.09,ESE,112,4.0,6.0,67,0.00,,,0.00,0.000000,,2013-03-04 12:01:00,
2013-03-04 02:11:00,69.0,58.0,30.09,ESE,112,4.0,6.0,67,0.00,,,0.00,0.000000,,2013-03-04 12:11:00,
2013-03-04 02:32:00,69.0,57.0,30.08,ENE,58,5.0,6.0,66,0.00,,,0.00,0.000000,,2013-03-04 12:32:00,
2013-03-04 02:42:00,69.0,57.0,30.08,ENE,58,5.0,6.0,66,0.00,,,0.00,0.000000,,2013-03-04 12:42:00,
2013-03-04 02:53:00,69.0,57.0,30.08,ENE,58,5.0,6.0,66,0.00,,,0.00,0.000000,,2013-03-04 12:53:00,
2013-03-04 03:02:00,69.0,57.0,30.08,ENE,58,5.0,6.0,66,0.00,,,0.00,0.000000,,2013-03-04 13:02:00,
2013-03-04 03:11:00,69.0,57.0,30.08,ENE,58,5.0,6.0,66,0.00,,,0.00,0.000000,,2013-03-04 13:11:00,
2013-03-04 03:42:00,68.0,57.0,30.06,ENE,66,7.0,8.0,67,0.00,,,0.00,0.000000,,2013-03-04 13:42:00,
2013-03-04 03:52:00,68.0,57.0,30.06,ENE,66,7.0,8.0,67,0.00,,,0.00,0.000000,,2013-03-04 13:52:00,
2013-03-04 04:01:00,68.0,57.0,30.06,ENE,66,7.0,8.0,67,0.00,,,0.00,0.000000,,2013-03-04 14:01:00,
2013-03-04 04:11:00,68.0,57.0,30.06,ENE,66,7.0,8.0,67,0.00,,,0.00,0.000000,,2013-03-04 14:11:00,
2013-03-04 04:42:00,68.0,57.0,30.06,ENE,59,7.0,10.0,68,0.00,,,0.00,0.000000,,2013-03-04 14:42:00,
2013-03-04 04:52:00,68.0,57.0,30.06,ENE,59,7.0,10.0,68,0.00,,,0.00,0.000000,,2013-03-04 14:52:00,
2013-03-04 05:01:00,68.0,57.0,30.06,ENE,59,7.0,10.0,68,0.00,,,0.00,0.000000,,2013-03-04 15:01:00,
2013-03-04 05:11:00,68.0,57.0,30.06,ENE,59,7.0,10.0,68,0.00,,,0.00,0.000000,,2013-03-04 15:11:00,
2013-03-04 05:42:00,66.0,57.0,30.07,NW,307,3.0,9.0,72,0.00,,,0.00,0.000000,,2013-03-04 15:42:00,
2013-03-04 05:52:00,66.0,57.0,30.07,NW,307,3.0,9.0,72,0.00,,,0.00,0.000000,,2013-03-04 15:52:00,
2013-03-04 06:02:00,66.0,57.0,30.07,NW,307,3.0,9.0,72,0.00,,,0.00,0.000000,,2013-03-04 16:02:00,
2013-03-04 06:11:00,66.0,57.0,30.07,NW,307,3.0,9.0,72,0.00,,,0.00,0.000000,,2013-03-04 16:11:00,
2013-03-04 06:42:00,64.0,56.0,30.09,WSW,255,2.0,5.0,74,0.00,,,0.00,0.000000,,2013-03-04 16:42:00,
2013-03-04 06:52:00,64.0,56.0,30.09,WSW,255,2.0,5.0,74,0.00,,,0.00,0.000000,,2013-03-04 16:52:00,
2013-03-04 07:02:00,64.0,56.0,30.09,WSW,255,2.0,5.0,74,0.00,,,0.00,0.000000,,2013-03-04 17:02:00,
2013-03-04 07:11:00,64.0,56.0,30.09,WSW,255,2.0,5.0,74,0.00,,,0.00,0.000000,,2013-03-04 17:11:00,
2013-03-04 07:42:00,65.0,55.0,30.11,WSW,257,1.0,5.0,69,0.00,,,0.00,13.000000,,2013-03-04 17:42:00,
2013-03-04 07:52:00,65.0,55.0,30.11,WSW,257,1.0,5.0,69,0.00,,,0.00,13.000000,,2013-03-04 17:52:00,
2013-03-04 08:01:00,65.0,55.0,30.11,WSW,257,1.0,5.0,69,0.00,,,0.00,13.000000,,2013-03-04 18:01:00,
2013-03-04 08:11:00,65.0,55.0,30.11,WSW,257,1.0,5.0,69,0.00,,,0.00,13.000000,,2013-03-04 18:11:00,
2013-03-04 08:42:00,76.0,57.0,30.12,ENE,77,4.0,6.0,52,0.00,,,0.00,165.000000,,2013-03-04 18:42:00,
2013-03-04 08:52:00,76.0,57.0,30.12,ENE,77,4.0,6.0,52,0.00,,,0.00,165.000000,,2013-03-04 18:52:00,
2013-03-04 09:01:00,76.0,57.0,30.12,ENE,77,4.0,6.0,52,0.00,,,0.00,165.000000,,2013-03-04 19:01:00,
2013-03-04 09:11:00,76.0,57.0,30.12,ENE,77,4.0,6.0,52,0.00,,,0.00,165.000000,,2013-03-04 19:11:00,
2013-03-04 09:42:00,78.0,59.0,30.13,West,269,5.0,7.0,53,0.00,,,0.00,423.000000,,2013-03-04 19:42:00,
2013-03-04 09:52:00,78.0,59.0,30.13,West,269,5.0,7.0,53,0.00,,,0.00,423.000000,,2013-03-04 19:52:00,
2013-03-04 10:01:00,78.0,59.0,30.13,West,269,5.0,7.0,53,0.00,,,0.00,423.000000,,2013-03-04 20:01:00,
2013-03-04 10:11:00,78.0,59.0,30.13,West,269,5.0,7.0,53,0.00,,,0.00,423.000000,,2013-03-04 20:11:00,
2013-03-04 10:42:00,79.0,60.0,30.13,WSW,240,8.0,11.0,53,0.00,,,0.00,670.000000,,2013-03-04 20:42:00,
2013-03-04 10:52:00,79.0,60.0,30.13,WSW,240,8.0,11.0,53,0.00,,,0.00,670.000000,,2013-03-04 20:52:00,
2013-03-04 11:01:00,79.0,60.0,30.13,WSW,240,8.0,11.0,53,0.00,,,0.00,670.000000,,2013-03-04 21:01:00,
2013-03-04 11:11:00,79.0,60.0,30.13,WSW,240,8.0,11.0,53,0.00,,,0.00,670.000000,,2013-03-04 21:11:00,
2013-03-04 11:32:00,80.0,62.0,30.12,SW,224,8.0,12.0,54,0.00,,,0.00,897.000000,,2013-03-04 21:32:00,
2013-03-04 11:43:00,80.0,62.0,30.12,SW,224,8.0,12.0,54,0.00,,,0.00,897.000000,,2013-03-04 21:43:00,
2013-03-04 11:52:00,80.0,62.0,30.12,SW,224,8.0,12.0,54,0.00,,,0.00,897.000000,,2013-03-04 21:52:00,
2013-03-04 12:01:00,80.0,62.0,30.12,SW,224,8.0,12.0,54,0.00,,,0.00,897.000000,,2013-03-04 22:01:00,
2013-03-04 12:11:00,80.0,62.0,30.12,SW,224,8.0,12.0,54,0.00,,,0.00,897.000000,,2013-03-04 22:11:00,
2013-03-04 12:43:00,80.0,63.0,30.10,WSW,244,9.0,13.0,56,0.00,,,0.00,1055.000000,,2013-03-04 22:43:00,
2013-03-04 12:52:00,80.0,63.0,30.10,WSW,244,9.0,13.0,56,0.00,,,0.00,1055.000000,,2013-03-04 22:52:00,
2013-03-04 13:01:00,80.0,63.0,30.10,WSW,244,9.0,13.0,56,0.00,,,0.00,1055.000000,,2013-03-04 23:01:00,
2013-03-04 13:11:00,80.0,63.0,30.10,WSW,244,9.0,13.0,56,0.00,,,0.00,1055.000000,,2013-03-04 23:11:00,
2013-03-04 13:32:00,81.0,62.0,30.08,WSW,240,9.0,13.0,53,0.00,,,0.00,1096.000000,,2013-03-04 23:32:00,
2013-03-04 13:42:00,81.0,62.0,30.08,WSW,240,9.0,13.0,53,0.00,,,0.00,1096.000000,,2013-03-04 23:42:00,
2013-03-04 13:52:00,81.0,62.0,30.08,WSW,240,9.0,13.0,53,0.00,,,0.00,1096.000000,,2013-03-04 23:52:00,
2013-03-04 14:01:00,81.0,62.0,30.08,WSW,240,9.0,13.0,53,0.00,,,0.00,1096.000000,,2013-03-05 00:01:00,
2013-03-04 14:11:00,81.0,62.0,30.08,WSW,240,9.0,13.0,53,0.00,,,0.00,1096.000000,,2013-03-05 00:11:00,
2013-03-04 14:42:00,80.0,62.0,30.05,WSW,237,9.0,13.0,54,0.00,,,0.00,1040.000000,,2013-03-05 00:42:00,
2013-03-04 14:52:00,80.0,62.0,30.05,WSW,237,9.0,13.0,54,0.00,,,0.00,1040.000000,,2013-03-05 00:52:00,
2013-03-04 15:01:00,80.0,62.0,30.05,WSW,237,9.0,13.0,54,0.00,,,0.00,1040.000000,,2013-03-05 01:01:00,
2013-03-04 15:11:00,80.0,62.0,30.05,WSW,237,9.0,13.0,54,0.00,,,0.00,1040.000000,,2013-03-05 01:11:00,
2013-03-04 15:42:00,81.0,62.0,30.05,WSW,256,9.0,13.0,53,0.00,,,0.00,921.000000,,2013-03-05 01:42:00,
2013-03-04 15:52:00,81.0,62.0,30.05,WSW,256,9.0,13.0,53,0.00,,,0.00,921.000000,,2013-03-05 01:52:00,
2013-03-04 16:01:00,81.0,62.0,30.05,WSW,256,9.0,13.0,53,0.00,,,0.00,921.000000,,2013-03-05 02:01:00,
2013-03-04 16:11:00,81.0,62.0,30.05,WSW,256,9.0,13.0,53,0.00,,,0.00,921.000000,,2013-03-05 02:11:00,
2013-03-04 16:42:00,80.0,62.0,30.04,West,272,8.0,12.0,55,0.00,,,0.00,667.000000,,2013-03-05 02:42:00,
2013-03-04 16:52:00,80.0,62.0,30.04,West,272,8.0,12.0,55,0.00,,,0.00,667.000000,,2013-03-05 02:52:00,
2013-03-04 17:01:00,80.0,62.0,30.04,West,272,8.0,12.0,55,0.00,,,0.00,667.000000,,2013-03-05 03:01:00,
2013-03-04 17:11:00,80.0,62.0,30.04,West,272,8.0,12.0,55,0.00,,,0.00,667.000000,,2013-03-05 03:11:00,
2013-03-04 17:32:00,78.0,62.0,30.04,West,279,8.0,11.0,57,0.00,,,0.00,425.000000,,2013-03-05 03:32:00,
2013-03-04 17:42:00,78.0,62.0,30.04,West,279,8.0,11.0,57,0.00,,,0.00,425.000000,,2013-03-05 03:42:00,
2013-03-04 17:52:00,78.0,62.0,30.04,West,279,8.0,11.0,57,0.00,,,0.00,425.000000,,2013-03-05 03:52:00,
2013-03-04 18:01:00,78.0,62.0,30.04,West,279,8.0,11.0,57,0.00,,,0.00,425.000000,,2013-03-05 04:01:00,
2013-03-04 18:11:00,78.0,62.0,30.04,West,279,8.0,11.0,57,0.00,,,0.00,425.000000,,2013-03-05 04:11:00,
2013-03-04 18:32:00,76.0,63.0,30.04,West,276,6.0,10.0,64,0.00,,,0.00,162.000000,,2013-03-05 04:32:00,
2013-03-04 18:42:00,76.0,63.0,30.04,West,276,6.0,10.0,64,0.00,,,0.00,162.000000,,2013-03-05 04:42:00,
2013-03-04 18:52:00,76.0,63.0,30.04,West,276,6.0,10.0,64,0.00,,,0.00,162.000000,,2013-03-05 04:52:00,
2013-03-04 19:01:00,76.0,63.0,30.04,West,276,6.0,10.0,64,0.00,,,0.00,162.000000,,2013-03-05 05:01:00,
2013-03-04 19:11:00,76.0,63.0,30.04,West,276,6.0,10.0,64,0.00,,,0.00,162.000000,,2013-03-05 05:11:00,
2013-03-04 19:32:00,74.0,60.0,30.05,SW,224,4.0,7.0,61,0.00,,,0.00,6.000000,,2013-03-05 05:32:00,
2013-03-04 19:42:00,74.0,60.0,30.05,SW,224,4.0,7.0,61,0.00,,,0.00,6.000000,,2013-03-05 05:42:00,
2013-03-04 19:52:00,74.0,60.0,30.05,SW,224,4.0,7.0,61,0.00,,,0.00,6.000000,,2013-03-05 05:52:00,
2013-03-04 20:01:00,74.0,60.0,30.05,SW,224,4.0,7.0,61,0.00,,,0.00,6.000000,,2013-03-05 06:01:00,
2013-03-04 20:11:00,74.0,60.0,30.05,SW,224,4.0,7.0,61,0.00,,,0.00,6.000000,,2013-03-05 06:11:00,
2013-03-04 20:32:00,72.0,60.0,30.06,East,95,5.0,8.0,67,0.00,,,-99.99,0.000000,,2013-03-05 06:32:00,
2013-03-04 20:42:00,72.0,60.0,30.06,East,95,5.0,8.0,67,0.00,,,-99.99,0.000000,,2013-03-05 06:42:00,
2013-03-04 20:52:00,72.0,60.0,30.06,East,95,5.0,8.0,67,0.00,,,-99.99,0.000000,,2013-03-05 06:52:00,
2013-03-04 21:01:00,72.0,60.0,30.06,East,95,5.0,8.0,67,0.00,,,-99.99,0.000000,,2013-03-05 07:01:00,
2013-03-04 21:11:00,72.0,60.0,30.06,East,95,5.0,8.0,67,0.00,,,-99.99,0.000000,,2013-03-05 07:11:00,
2013-03-04 21:32:00,71.0,58.0,30.07,ENE,78,6.0,9.0,64,0.00,,,0.00,0.000000,,2013-03-05 07:32:00,
2013-03-04 21:42:00,71.0,58.0,30.07,ENE,78,6.0,9.0,64,0.00,,,0.00,0.000000,,2013-03-05 07:42:00,
2013-03-04 21:52:00,71.0,58.0,30.07,ENE,78,6.0,9.0,64,0.00,,,0.00,0.000000,,2013-03-05 07:52:00,
2013-03-04 22:02:00,71.0,58.0,30.07,ENE,78,6.0,9.0,64,0.00,,,0.00,0.000000,,2013-03-05 08:02:00,
2013-03-04 22:11:00,71.0,58.0,30.07,ENE,78,6.0,9.0,64,0.00,,,0.00,0.000000,,2013-03-05 08:11:00,
2013-03-04 22:42:00,72.0,59.0,30.09,ESE,109,7.0,9.0,64,0.00,,,0.00,0.000000,,2013-03-05 08:42:00,
2013-03-04 22:52:00,72.0,59.0,30.09,ESE,109,7.0,9.0,64,0.00,,,0.00,0.000000,,2013-03-05 08:52:00,
2013-03-04 23:01:00,72.0,59.0,30.09,ESE,109,7.0,9.0,64,0.00,,,0.00,0.000000,,2013-03-05 09:01:00,
2013-03-04 23:11:00,72.0,59.0,30.09,ESE,109,7.0,9.0,64,0.00,,,0.00,0.000000,,2013-03-05 09:11:00,
2013-03-04 23:32:00,71.0,59.0,30.08,East,96,6.0,9.0,65,0.00,,,0.00,0.000000,,2013-03-05 09:32:00,
2013-03-04 23:43:00,71.0,59.0,30.08,East,96,6.0,9.0,65,0.00,,,0.00,0.000000,,2013-03-05 09:43:00,
2013-03-04 23:52:00,71.0,59.0,30.08,East,96,6.0,9.0,65,0.00,,,0.00,0.000000,,2013-03-05 09:52:00,